Time;durP1;ratioP1;P1;durP2;ratioP2;P2;SDS_P1;SDS_P2;PMS_P1;PMS_P2;Temp;Humidity;BMP_temperature;BMP_pressure;BME280_temperature;BME280_humidity;BME280_pressure;Samples;Min_cycle;Max_cycle;Signal;HPM_P1;HPM_P2
2022/11/30 00:01:51;;;;;;;8.25;3.83;;;;;;;;;;5091956;28;20016;-72
2022/11/30 00:04:16;;;;;;;7.57;4.60;;;;;;;;;;5091743;28;20027;-72
2022/11/30 00:06:42;;;;;;;6.93;4.20;;;;;;;;;;5091854;28;20028;-72
2022/11/30 00:09:07;;;;;;;11.90;4.82;;;;;;;;;;5092182;28;20020;-72
2022/11/30 00:11:32;;;;;;;7.57;4.50;;;;;;;;;;5095694;28;20051;-73
2022/11/30 00:13:58;;;;;;;9.38;4.75;;;;;;;;;;5098611;28;20549;-70
2022/11/30 00:16:23;;;;;;;5.05;3.45;;;;;;;;;;5114664;28;20020;-72
2022/11/30 00:18:49;;;;;;;7.82;4.45;;;;;;;;;;5098870;28;20102;-72
2022/11/30 00:21:14;;;;;;;9.10;5.75;;;;;;;;;;5098362;28;20020;-71
2022/11/30 00:23:41;;;;;;;6.85;4.60;;;;;;;;;;5099132;28;20455;-71
2022/11/30 00:26:08;;;;;;;5.97;4.10;;;;;;;;;;5098676;28;20027;-70
2022/11/30 00:28:34;;;;;;;8.18;4.70;;;;;;;;;;5098463;28;20039;-71
2022/11/30 00:31:00;;;;;;;7.68;5.32;;;;;;;;;;5098363;28;20015;-72
2022/11/30 00:33:26;;;;;;;7.60;5.38;;;;;;;;;;5098896;28;20023;-70
2022/11/30 00:35:58;;;;;;;7.88;4.30;;;;;;;;;;5114171;28;20365;-71
2022/11/30 00:38:24;;;;;;;6.40;4.05;;;;;;;;;;5114291;28;20012;-71
2022/11/30 00:40:49;;;;;;;6.20;3.92;;;;;;;;;;5114233;28;20464;-73
2022/11/30 00:43:14;;;;;;;6.00;4.07;;;;;;;;;;5114292;28;20385;-71
2022/11/30 00:45:40;;;;;;;5.28;3.97;;;;;;;;;;5114434;28;20020;-69
2022/11/30 00:48:06;;;;;;;9.32;4.20;;;;;;;;;;5098507;28;20028;-72
2022/11/30 00:50:31;;;;;;;6.80;3.65;;;;;;;;;;5098666;28;20016;-70
2022/11/30 00:52:56;;;;;;;6.10;3.60;;;;;;;;;;5098233;28;20062;-69
2022/11/30 00:55:22;;;;;;;10.10;5.25;;;;;;;;;;5098747;28;20027;-70
2022/11/30 00:57:47;;;;;;;4.80;3.22;;;;;;;;;;5098602;28;20386;-70
2022/11/30 01:00:13;;;;;;;4.63;2.92;;;;;;;;;;5098094;28;20044;-69
2022/11/30 01:02:38;;;;;;;7.95;3.67;;;;;;;;;;5098528;28;20024;-73
2022/11/30 01:05:04;;;;;;;5.43;3.75;;;;;;;;;;5113744;28;20023;-70
2022/11/30 01:07:29;;;;;;;11.00;4.85;;;;;;;;;;5098386;28;20028;-71
2022/11/30 01:09:55;;;;;;;5.60;3.90;;;;;;;;;;5098299;28;20016;-70
2022/11/30 01:12:20;;;;;;;7.28;4.53;;;;;;;;;;5113875;28;20020;-70
2022/11/30 01:14:45;;;;;;;7.05;4.40;;;;;;;;;;5114092;28;20020;-70
2022/11/30 01:17:11;;;;;;;5.97;4.07;;;;;;;;;;5096794;28;20473;-71
2022/11/30 01:19:36;;;;;;;5.95;3.65;;;;;;;;;;5098267;28;20041;-72
2022/11/30 01:22:01;;;;;;;5.70;4.10;;;;;;;;;;5097993;28;20323;-70
2022/11/30 01:24:27;;;;;;;8.68;3.97;;;;;;;;;;5109407;28;20540;-70
2022/11/30 01:26:52;;;;;;;4.38;3.38;;;;;;;;;;5094853;28;20024;-71
2022/11/30 01:29:18;;;;;;;6.70;4.95;;;;;;;;;;5094846;28;20466;-71
2022/11/30 01:31:43;;;;;;;6.38;4.70;;;;;;;;;;5095007;28;20015;-71
2022/11/30 01:34:08;;;;;;;5.28;3.58;;;;;;;;;;5094787;28;20016;-70
2022/11/30 01:36:35;;;;;;;5.05;3.17;;;;;;;;;;5094802;28;20016;-69
2022/11/30 01:39:00;;;;;;;3.80;2.25;;;;;;;;;;5094646;28;20031;-72
2022/11/30 01:41:27;;;;;;;4.38;3.10;;;;;;;;;;5094552;28;20024;-70
2022/11/30 01:43:54;;;;;;;4.47;2.42;;;;;;;;;;5094742;28;20019;-70
2022/11/30 01:46:22;;;;;;;5.70;3.58;;;;;;;;;;5095065;28;20024;-70
2022/11/30 01:48:52;;;;;;;4.57;3.08;;;;;;;;;;5094196;28;20054;-74
2022/11/30 01:51:18;;;;;;;5.30;3.80;;;;;;;;;;5094423;28;20016;-70
2022/11/30 01:53:43;;;;;;;4.38;2.97;;;;;;;;;;5094349;28;20484;-73
2022/11/30 01:56:09;;;;;;;4.30;2.95;;;;;;;;;;5110134;28;20058;-71
2022/11/30 01:58:35;;;;;;;4.88;3.67;;;;;;;;;;5094424;28;20150;-71
2022/11/30 02:01:01;;;;;;;4.57;3.45;;;;;;;;;;5094121;28;20016;-72
2022/11/30 02:03:33;;;;;;;3.78;2.30;;;;;;;;;;5094601;28;20035;-72
2022/11/30 02:05:59;;;;;;;3.78;2.90;;;;;;;;;;5094357;28;20024;-71
2022/11/30 02:08:25;;;;;;;6.15;3.33;;;;;;;;;;5093994;28;20028;-71
2022/11/30 02:10:52;;;;;;;6.28;3.40;;;;;;;;;;5094071;28;20036;-72
2022/11/30 02:13:30;;;;;;;5.25;3.58;;;;;;;;;;5094129;28;20385;-70
2022/11/30 02:16:16;;;;;;;5.85;3.63;;;;;;;;;;5109503;28;20153;-72
2022/11/30 02:19:00;;;;;;;5.93;4.20;;;;;;;;;;5094108;28;20024;-70
2022/11/30 02:21:36;;;;;;;5.70;3.95;;;;;;;;;;5093806;28;20031;-70
2022/11/30 02:24:04;;;;;;;5.68;3.90;;;;;;;;;;5093690;28;20089;-72
2022/11/30 02:26:33;;;;;;;5.60;4.30;;;;;;;;;;5093599;28;20024;-70
2022/11/30 02:29:04;;;;;;;5.30;4.20;;;;;;;;;;5092928;28;20478;-71
2022/11/30 02:31:56;;;;;;;5.47;4.10;;;;;;;;;;5093288;28;20511;-70
2022/11/30 02:34:24;;;;;;;5.20;4.07;;;;;;;;;;5091991;28;20073;-71
2022/11/30 02:36:49;;;;;;;6.80;4.70;;;;;;;;;;5093800;28;20496;-72
2022/11/30 02:39:15;;;;;;;6.45;4.00;;;;;;;;;;5093335;28;20020;-72
2022/11/30 02:41:41;;;;;;;6.28;4.85;;;;;;;;;;5093383;28;20070;-71
2022/11/30 02:44:09;;;;;;;6.57;4.43;;;;;;;;;;5109064;28;20413;-71
2022/11/30 02:46:41;;;;;;;5.95;4.15;;;;;;;;;;5093386;28;20016;-71
2022/11/30 02:49:15;;;;;;;6.07;4.25;;;;;;;;;;5108854;28;20427;-72
2022/11/30 02:51:41;;;;;;;5.40;3.65;;;;;;;;;;5093519;28;20040;-72
2022/11/30 02:54:07;;;;;;;6.78;4.20;;;;;;;;;;5093354;28;20100;-71
2022/11/30 02:56:32;;;;;;;5.10;4.15;;;;;;;;;;5093148;28;20093;-71
2022/11/30 02:58:58;;;;;;;8.27;5.10;;;;;;;;;;5092984;28;20048;-71
2022/11/30 03:01:23;;;;;;;8.82;5.38;;;;;;;;;;5093439;28;20016;-72
2022/11/30 03:03:49;;;;;;;6.65;4.45;;;;;;;;;;5093158;28;20427;-71
2022/11/30 03:06:14;;;;;;;6.40;4.47;;;;;;;;;;5093416;28;20013;-70
2022/11/30 03:08:39;;;;;;;6.15;4.82;;;;;;;;;;5092902;28;20053;-71
2022/11/30 03:11:05;;;;;;;6.57;4.38;;;;;;;;;;5092603;28;20063;-71
2022/11/30 03:13:31;;;;;;;6.72;4.88;;;;;;;;;;5108704;28;20016;-71
2022/11/30 03:15:56;;;;;;;7.07;5.00;;;;;;;;;;5092933;28;20016;-72
2022/11/30 03:18:22;;;;;;;7.95;5.70;;;;;;;;;;5092975;28;20043;-71
2022/11/30 03:20:47;;;;;;;7.65;5.70;;;;;;;;;;5092850;28;20016;-72
2022/11/30 03:23:12;;;;;;;9.73;5.78;;;;;;;;;;5092869;28;20035;-69
2022/11/30 03:25:38;;;;;;;7.57;5.40;;;;;;;;;;5108377;28;20048;-72
2022/11/30 03:28:03;;;;;;;7.80;5.65;;;;;;;;;;5108506;28;20028;-71
2022/11/30 03:30:29;;;;;;;7.10;5.68;;;;;;;;;;5092849;28;20016;-72
2022/11/30 03:32:54;;;;;;;9.15;6.35;;;;;;;;;;5092691;28;20012;-71
2022/11/30 03:35:20;;;;;;;8.50;6.18;;;;;;;;;;5108290;28;20034;-72
2022/11/30 03:37:46;;;;;;;11.90;6.88;;;;;;;;;;5108285;28;20016;-71
2022/11/30 03:40:11;;;;;;;9.35;6.78;;;;;;;;;;5092427;28;20020;-72
2022/11/30 03:42:37;;;;;;;9.85;6.88;;;;;;;;;;5092419;28;20016;-72
2022/11/30 03:45:03;;;;;;;11.30;7.60;;;;;;;;;;5091048;28;20056;-69
2022/11/30 03:47:28;;;;;;;11.55;7.75;;;;;;;;;;5107551;28;20032;-72
2022/11/30 03:49:54;;;;;;;8.93;5.63;;;;;;;;;;5092299;28;20026;-71
2022/11/30 03:52:20;;;;;;;6.93;5.38;;;;;;;;;;5092652;28;20051;-73
2022/11/30 03:54:45;;;;;;;8.38;6.13;;;;;;;;;;5107740;28;20026;-73
2022/11/30 03:57:11;;;;;;;7.88;5.97;;;;;;;;;;5092431;28;20020;-72
2022/11/30 03:59:36;;;;;;;7.22;4.80;;;;;;;;;;5092248;28;20052;-71
2022/11/30 04:02:01;;;;;;;8.25;5.97;;;;;;;;;;5107865;28;20021;-72
2022/11/30 04:04:27;;;;;;;9.30;5.40;;;;;;;;;;5107924;28;20400;-71
2022/11/30 04:06:52;;;;;;;8.15;5.03;;;;;;;;;;5092435;28;20020;-72
2022/11/30 04:09:18;;;;;;;6.88;4.68;;;;;;;;;;5091764;28;20065;-71
2022/11/30 04:11:43;;;;;;;7.63;5.45;;;;;;;;;;5092659;28;20487;-72
2022/11/30 04:14:09;;;;;;;7.57;5.35;;;;;;;;;;5107732;28;20077;-72
2022/11/30 04:16:34;;;;;;;7.75;5.43;;;;;;;;;;5092549;28;20026;-71
2022/11/30 04:18:59;;;;;;;6.70;4.95;;;;;;;;;;5091868;28;20028;-72
2022/11/30 04:21:25;;;;;;;7.28;4.93;;;;;;;;;;5091992;28;20095;-70
2022/11/30 04:23:51;;;;;;;14.65;7.50;;;;;;;;;;5091924;28;20016;-73
2022/11/30 04:26:17;;;;;;;7.07;4.70;;;;;;;;;;5092016;28;20446;-72
2022/11/30 04:28:42;;;;;;;8.05;5.55;;;;;;;;;;5091930;28;20111;-73
2022/11/30 04:31:08;;;;;;;7.57;5.20;;;;;;;;;;5107338;28;20016;-74
2022/11/30 04:33:33;;;;;;;9.88;6.03;;;;;;;;;;5091911;28;20487;-74
2022/11/30 04:36:00;;;;;;;6.78;5.07;;;;;;;;;;5092131;28;20055;-71
2022/11/30 04:38:26;;;;;;;7.15;5.30;;;;;;;;;;5091694;28;20028;-73
2022/11/30 04:40:52;;;;;;;7.63;5.50;;;;;;;;;;5107627;28;20084;-71
2022/11/30 04:43:17;;;;;;;8.80;5.40;;;;;;;;;;5091799;28;20102;-72
2022/11/30 04:45:46;;;;;;;5.47;4.07;;;;;;;;;;5091768;28;20138;-71
2022/11/30 04:48:12;;;;;;;7.05;4.78;;;;;;;;;;5107225;28;20028;-72
2022/11/30 04:50:38;;;;;;;7.63;3.85;;;;;;;;;;5092329;28;20102;-73
2022/11/30 04:53:03;;;;;;;8.35;4.72;;;;;;;;;;5091166;28;20392;-72
2022/11/30 04:55:29;;;;;;;5.60;4.38;;;;;;;;;;5107148;28;20016;-74
2022/11/30 04:57:54;;;;;;;8.40;4.78;;;;;;;;;;5107513;28;20016;-70
2022/11/30 05:00:20;;;;;;;7.40;4.00;;;;;;;;;;5095310;28;20048;-74
2022/11/30 05:02:45;;;;;;;6.50;4.97;;;;;;;;;;5095342;28;20073;-74
2022/11/30 05:05:11;;;;;;;7.57;5.03;;;;;;;;;;5095102;28;20032;-72
2022/11/30 05:07:37;;;;;;;7.20;5.07;;;;;;;;;;5094913;28;20043;-72
2022/11/30 05:10:03;;;;;;;7.53;5.97;;;;;;;;;;5095832;28;20024;-73
2022/11/30 05:12:28;;;;;;;6.53;5.25;;;;;;;;;;5110896;28;20020;-72
2022/11/30 05:14:53;;;;;;;7.80;5.38;;;;;;;;;;5095055;28;20525;-73
2022/11/30 05:17:19;;;;;;;10.23;5.32;;;;;;;;;;5110443;28;20044;-74
2022/11/30 05:19:44;;;;;;;8.55;6.00;;;;;;;;;;5095156;28;20061;-75
2022/11/30 05:22:09;;;;;;;7.20;5.00;;;;;;;;;;5094812;28;20380;-74
2022/11/30 05:24:35;;;;;;;7.80;4.88;;;;;;;;;;5095053;28;20020;-74
2022/11/30 05:27:00;;;;;;;8.13;6.00;;;;;;;;;;5094236;28;20031;-74
2022/11/30 05:29:26;;;;;;;8.63;6.10;;;;;;;;;;5094700;28;20019;-72
2022/11/30 05:31:51;;;;;;;8.25;6.28;;;;;;;;;;5094770;28;20360;-74
2022/11/30 05:34:16;;;;;;;10.77;6.03;;;;;;;;;;5094681;28;20020;-73
2022/11/30 05:36:42;;;;;;;7.63;5.60;;;;;;;;;;5110156;28;20069;-73
2022/11/30 05:39:07;;;;;;;7.75;5.50;;;;;;;;;;5094113;28;20024;-73
2022/11/30 05:41:33;;;;;;;8.75;5.90;;;;;;;;;;5094696;28;20116;-73
2022/11/30 05:43:58;;;;;;;7.85;5.93;;;;;;;;;;5095088;28;20016;-73
2022/11/30 05:46:24;;;;;;;8.95;6.57;;;;;;;;;;5094641;28;20019;-74
2022/11/30 05:48:49;;;;;;;7.45;5.63;;;;;;;;;;5094117;28;20054;-74
2022/11/30 05:51:16;;;;;;;8.73;5.90;;;;;;;;;;5093932;28;20103;-72
2022/11/30 05:53:42;;;;;;;8.80;6.72;;;;;;;;;;5109739;28;20020;-73
2022/11/30 05:56:09;;;;;;;10.02;6.28;;;;;;;;;;5094230;28;20077;-72
2022/11/30 05:58:34;;;;;;;9.45;6.50;;;;;;;;;;5109909;28;20027;-73
2022/11/30 06:01:00;;;;;;;9.23;6.90;;;;;;;;;;5093904;28;20326;-75
2022/11/30 06:03:28;;;;;;;10.95;6.53;;;;;;;;;;5093795;28;20056;-73
2022/11/30 06:05:53;;;;;;;9.02;5.53;;;;;;;;;;5093759;28;20024;-74
2022/11/30 06:08:18;;;;;;;10.63;6.78;;;;;;;;;;5094028;28;20115;-75
2022/11/30 06:10:44;;;;;;;8.77;6.25;;;;;;;;;;5109300;28;20042;-74
2022/11/30 06:13:09;;;;;;;11.07;7.20;;;;;;;;;;5093744;28;20012;-75
2022/11/30 06:15:35;;;;;;;11.57;7.80;;;;;;;;;;5093610;28;20020;-73
2022/11/30 06:18:01;;;;;;;9.18;6.55;;;;;;;;;;5093706;28;20090;-73
2022/11/30 06:20:27;;;;;;;11.85;7.28;;;;;;;;;;5093272;28;20040;-75
2022/11/30 06:22:52;;;;;;;9.30;6.40;;;;;;;;;;5093718;28;20402;-74
2022/11/30 06:25:18;;;;;;;8.77;5.95;;;;;;;;;;5093681;28;20061;-73
2022/11/30 06:27:43;;;;;;;9.73;6.75;;;;;;;;;;5092969;28;20492;-73
2022/11/30 06:30:09;;;;;;;9.43;6.20;;;;;;;;;;5108821;28;20333;-75
2022/11/30 06:32:35;;;;;;;11.35;6.05;;;;;;;;;;5092827;28;20020;-75
2022/11/30 06:35:00;;;;;;;12.70;6.47;;;;;;;;;;5108044;28;20016;-73
2022/11/30 06:37:26;;;;;;;9.63;6.57;;;;;;;;;;5093220;28;20028;-73
2022/11/30 06:39:51;;;;;;;9.55;5.65;;;;;;;;;;5093462;28;20043;-76
2022/11/30 06:42:18;;;;;;;10.88;6.88;;;;;;;;;;5093526;28;20507;-74
2022/11/30 06:44:44;;;;;;;10.60;6.55;;;;;;;;;;5093362;28;20020;-76
2022/11/30 06:47:10;;;;;;;10.88;7.10;;;;;;;;;;5092609;28;20064;-77
2022/11/30 06:49:35;;;;;;;9.77;6.43;;;;;;;;;;5107643;28;20071;-75
2022/11/30 06:52:01;;;;;;;10.07;6.45;;;;;;;;;;5107892;28;20465;-77
2022/11/30 06:54:26;;;;;;;9.73;6.60;;;;;;;;;;5092923;28;20261;-73
2022/11/30 06:56:51;;;;;;;11.68;6.30;;;;;;;;;;5107903;28;20156;-76
2022/11/30 06:59:17;;;;;;;11.25;6.78;;;;;;;;;;5107533;28;20052;-76
2022/11/30 07:01:42;;;;;;;11.27;6.50;;;;;;;;;;5094268;28;20480;-77
2022/11/30 07:04:08;;;;;;;12.48;7.03;;;;;;;;;;5110632;28;20051;-74
2022/11/30 07:06:33;;;;;;;11.57;6.65;;;;;;;;;;5097550;28;20482;-75
2022/11/30 07:08:59;;;;;;;9.07;6.47;;;;;;;;;;5109863;28;20039;-76
2022/11/30 07:11:24;;;;;;;9.40;6.28;;;;;;;;;;5093148;28;20098;-77
2022/11/30 07:13:49;;;;;;;8.40;5.20;;;;;;;;;;5092460;28;20078;-78
2022/11/30 07:16:15;;;;;;;12.85;6.85;;;;;;;;;;5092500;28;20146;-78
2022/11/30 07:18:40;;;;;;;12.57;8.25;;;;;;;;;;5107663;28;20414;-77
2022/11/30 07:21:06;;;;;;;11.27;6.57;;;;;;;;;;5106321;28;20016;-76
2022/11/30 07:26:16;;;;;;;13.23;6.90;;;;;;;;;;5092021;28;20043;-77
2022/11/30 07:28:42;;;;;;;15.27;8.23;;;;;;;;;;5092134;28;20480;-77
2022/11/30 07:31:19;;;;;;;13.02;7.65;;;;;;;;;;5091737;28;20052;-74
2022/11/30 07:33:45;;;;;;;12.48;6.68;;;;;;;;;;5108159;28;20019;-77
2022/11/30 07:36:10;;;;;;;11.30;6.82;;;;;;;;;;5093075;28;20020;-78
2022/11/30 07:38:37;;;;;;;11.15;6.32;;;;;;;;;;5092674;28;20024;-77
2022/11/30 07:41:03;;;;;;;10.10;6.63;;;;;;;;;;5108188;28;20028;-78
2022/11/30 07:43:28;;;;;;;15.13;7.75;;;;;;;;;;5092159;28;20027;-77
2022/11/30 07:45:54;;;;;;;10.15;7.13;;;;;;;;;;5106815;28;20020;-79
2022/11/30 07:48:20;;;;;;;8.70;6.10;;;;;;;;;;5091942;28;20054;-77
2022/11/30 07:50:46;;;;;;;12.45;7.30;;;;;;;;;;5092782;28;20020;-76
2022/11/30 07:53:11;;;;;;;9.85;6.43;;;;;;;;;;5091894;28;20020;-78
2022/11/30 07:55:36;;;;;;;13.75;6.45;;;;;;;;;;5107577;28;20031;-73
2022/11/30 07:58:02;;;;;;;9.18;6.20;;;;;;;;;;5107862;28;20100;-79
2022/11/30 08:00:27;;;;;;;9.68;6.15;;;;;;;;;;5091412;28;20040;-77
2022/11/30 08:02:53;;;;;;;9.02;5.82;;;;;;;;;;5107091;28;20114;-78
2022/11/30 08:05:18;;;;;;;9.50;5.85;;;;;;;;;;5091594;28;20705;-78
2022/11/30 08:07:44;;;;;;;9.82;6.25;;;;;;;;;;5091810;28;20031;-77
2022/11/30 08:10:10;;;;;;;11.35;6.18;;;;;;;;;;5107506;28;20107;-78
2022/11/30 08:12:36;;;;;;;10.38;5.60;;;;;;;;;;5107627;28;20048;-78
2022/11/30 08:15:02;;;;;;;9.63;5.75;;;;;;;;;;5091377;28;20429;-76
2022/11/30 08:17:27;;;;;;;11.63;6.03;;;;;;;;;;5107668;28;20024;-78
2022/11/30 08:19:53;;;;;;;9.82;5.55;;;;;;;;;;5092002;28;20065;-77
2022/11/30 08:22:18;;;;;;;11.05;5.95;;;;;;;;;;5107489;28;20020;-77
2022/11/30 08:24:43;;;;;;;12.55;7.40;;;;;;;;;;5091968;28;20380;-78
2022/11/30 08:27:09;;;;;;;10.38;6.55;;;;;;;;;;5091905;28;20032;-77
2022/11/30 08:29:34;;;;;;;8.90;5.72;;;;;;;;;;5092021;28;20020;-77
2022/11/30 08:31:59;;;;;;;10.20;6.63;;;;;;;;;;5092851;28;20086;-76
2022/11/30 08:34:25;;;;;;;10.25;6.30;;;;;;;;;;5111682;28;20024;-78
2022/11/30 08:36:51;;;;;;;12.02;6.13;;;;;;;;;;5111683;28;20023;-77
2022/11/30 08:39:17;;;;;;;9.95;6.13;;;;;;;;;;5095705;28;20047;-77
2022/11/30 08:41:42;;;;;;;9.60;5.50;;;;;;;;;;5095718;28;20020;-75
2022/11/30 08:44:08;;;;;;;8.63;5.97;;;;;;;;;;5095344;28;20529;-77
2022/11/30 08:46:34;;;;;;;10.23;5.30;;;;;;;;;;5095989;28;20016;-78
2022/11/30 08:48:59;;;;;;;10.23;5.63;;;;;;;;;;5095584;28;20477;-77
2022/11/30 08:51:25;;;;;;;9.00;5.13;;;;;;;;;;5112237;28;20024;-77
2022/11/30 08:53:50;;;;;;;10.52;5.88;;;;;;;;;;5095075;28;20464;-77
2022/11/30 08:56:17;;;;;;;9.55;5.75;;;;;;;;;;5111460;28;20020;-76
2022/11/30 08:58:43;;;;;;;10.45;5.65;;;;;;;;;;5094719;28;20019;-78
2022/11/30 09:01:09;;;;;;;9.52;5.50;;;;;;;;;;5095411;28;20017;-78
2022/11/30 09:03:35;;;;;;;10.13;5.43;;;;;;;;;;5095647;28;20073;-74
2022/11/30 09:06:26;;;;;;;7.43;4.72;;;;;;;;;;5110684;28;20020;-77
2022/11/30 09:08:54;;;;;;;7.90;4.85;;;;;;;;;;5093863;28;20036;-77
2022/11/30 09:11:23;;;;;;;6.93;4.93;;;;;;;;;;5094774;28;20380;-77
2022/11/30 09:13:49;;;;;;;25.25;11.40;;;;;;;;;;5095348;28;20483;-78
2022/11/30 09:16:16;;;;;;;31.42;12.02;;;;;;;;;;5095176;28;20016;-79
2022/11/30 09:18:41;;;;;;;22.55;8.82;;;;;;;;;;5093992;28;20020;-78
2022/11/30 09:21:09;;;;;;;22.05;8.05;;;;;;;;;;5093460;28;20016;-78
2022/11/30 09:23:35;;;;;;;13.65;8.20;;;;;;;;;;5110393;28;20395;-78
2022/11/30 09:26:01;;;;;;;10.27;5.70;;;;;;;;;;5110297;28;20115;-79
2022/11/30 09:28:29;;;;;;;8.05;4.95;;;;;;;;;;5094643;28;20100;-76
2022/11/30 09:30:59;;;;;;;10.43;5.80;;;;;;;;;;5094988;28;20061;-78
2022/11/30 09:33:24;;;;;;;9.05;5.82;;;;;;;;;;5094977;28;20380;-76
2022/11/30 09:35:56;;;;;;;12.45;6.68;;;;;;;;;;5110866;28;20042;-77
2022/11/30 09:38:22;;;;;;;11.10;6.00;;;;;;;;;;5094641;28;20028;-78
2022/11/30 09:40:48;;;;;;;11.35;6.63;;;;;;;;;;5094561;28;20107;-78
2022/11/30 09:43:25;;;;;;;11.77;6.97;;;;;;;;;;5094354;28;20024;-76
2022/11/30 09:45:53;;;;;;;9.07;5.57;;;;;;;;;;5094874;28;20102;-77
2022/11/30 09:48:27;;;;;;;6.75;4.55;;;;;;;;;;5094298;28;20032;-78
2022/11/30 09:50:53;;;;;;;8.27;4.77;;;;;;;;;;5094127;28;20020;-77
2022/11/30 09:53:23;;;;;;;8.07;4.85;;;;;;;;;;5094173;28;20031;-75
2022/11/30 09:55:50;;;;;;;7.82;4.80;;;;;;;;;;5109319;28;20162;-78
2022/11/30 09:58:26;;;;;;;5.68;4.28;;;;;;;;;;5093341;28;20020;-76
2022/11/30 10:00:52;;;;;;;7.28;4.88;;;;;;;;;;5109040;28;20044;-75
2022/11/30 10:03:18;;;;;;;6.75;4.63;;;;;;;;;;5108939;28;20024;-77
2022/11/30 10:06:00;;;;;;;6.43;4.80;;;;;;;;;;5094189;28;20364;-78
2022/11/30 10:08:34;;;;;;;6.32;4.90;;;;;;;;;;5093580;28;20036;-77
2022/11/30 10:11:20;;;;;;;7.88;4.88;;;;;;;;;;5093305;28;20467;-77
2022/11/30 10:14:11;;;;;;;6.95;4.03;;;;;;;;;;5109077;28;20051;-77
2022/11/30 10:17:00;;;;;;;7.85;4.95;;;;;;;;;;5093047;28;20047;-73
2022/11/30 10:19:25;;;;;;;8.48;5.28;;;;;;;;;;5092993;28;20027;-74
2022/11/30 10:22:06;;;;;;;9.43;5.57;;;;;;;;;;5093461;28;20484;-76
2022/11/30 10:24:48;;;;;;;9.38;5.57;;;;;;;;;;5109092;28;20081;-75
2022/11/30 10:27:16;;;;;;;9.77;6.00;;;;;;;;;;5093103;28;20063;-73
2022/11/30 10:29:42;;;;;;;7.30;5.00;;;;;;;;;;5093020;28;20024;-74
2022/11/30 10:32:30;;;;;;;8.15;5.22;;;;;;;;;;5094180;28;20047;-74
2022/11/30 10:35:00;;;;;;;7.25;4.93;;;;;;;;;;5095034;28;20028;-74
2022/11/30 10:37:36;;;;;;;7.63;5.30;;;;;;;;;;5094797;28;20020;-76
2022/11/30 10:40:03;;;;;;;7.85;5.95;;;;;;;;;;5093261;28;20059;-74
2022/11/30 10:42:35;;;;;;;6.95;5.13;;;;;;;;;;5093202;28;20027;-74
2022/11/30 10:45:08;;;;;;;5.30;3.60;;;;;;;;;;5109268;28;20402;-73
2022/11/30 10:47:35;;;;;;;5.82;4.15;;;;;;;;;;5093891;28;20444;-76
2022/11/30 10:50:02;;;;;;;6.05;4.57;;;;;;;;;;5093096;28;20024;-74
2022/11/30 10:52:33;;;;;;;6.00;4.45;;;;;;;;;;5108703;28;20050;-76
2022/11/30 10:54:59;;;;;;;5.95;4.32;;;;;;;;;;5092847;28;20024;-75
2022/11/30 10:57:28;;;;;;;7.30;5.18;;;;;;;;;;5092813;28;20087;-74
2022/11/30 10:59:54;;;;;;;7.90;5.22;;;;;;;;;;5107426;28;20091;-75
2022/11/30 11:02:49;;;;;;;6.78;4.28;;;;;;;;;;5093109;28;20030;-76
2022/11/30 11:05:24;;;;;;;7.47;4.88;;;;;;;;;;5082396;28;20127;-77
2022/11/30 11:07:59;;;;;;;7.28;4.65;;;;;;;;;;5092578;28;20045;-73
2022/11/30 11:10:24;;;;;;;7.28;5.07;;;;;;;;;;5108541;28;20030;-77
2022/11/30 11:12:52;;;;;;;8.35;5.35;;;;;;;;;;5092568;28;20032;-77
2022/11/30 11:15:20;;;;;;;11.88;6.28;;;;;;;;;;5091330;28;20468;-79
2022/11/30 11:17:45;;;;;;;7.05;4.72;;;;;;;;;;5092128;28;20016;-75
2022/11/30 11:20:29;;;;;;;10.35;5.60;;;;;;;;;;5092201;28;20081;-76
2022/11/30 11:22:54;;;;;;;7.32;5.03;;;;;;;;;;5092715;28;20071;-75
2022/11/30 11:25:22;;;;;;;9.00;5.13;;;;;;;;;;5092474;28;20388;-77
2022/11/30 11:27:52;;;;;;;11.32;5.78;;;;;;;;;;5108613;28;20125;-76
2022/11/30 11:30:27;;;;;;;9.23;5.88;;;;;;;;;;5107480;28;20164;-77
2022/11/30 11:33:00;;;;;;;7.35;5.10;;;;;;;;;;5092156;28;20119;-76
2022/11/30 11:35:36;;;;;;;8.25;4.60;;;;;;;;;;5094822;28;20031;-76
2022/11/30 11:38:02;;;;;;;6.40;3.58;;;;;;;;;;5111058;28;20028;-77
2022/11/30 11:40:27;;;;;;;6.88;4.45;;;;;;;;;;5096794;28;20027;-78
2022/11/30 11:42:57;;;;;;;11.13;5.32;;;;;;;;;;5108665;28;20067;-77
2022/11/30 11:45:28;;;;;;;7.63;4.07;;;;;;;;;;5092034;28;20026;-78
2022/11/30 11:48:01;;;;;;;10.60;5.43;;;;;;;;;;5107441;28;20122;-77
2022/11/30 11:50:29;;;;;;;10.30;5.65;;;;;;;;;;5091494;28;20019;-76
2022/11/30 11:53:13;;;;;;;9.40;5.85;;;;;;;;;;5091943;28;20538;-77
2022/11/30 11:55:40;;;;;;;8.75;5.35;;;;;;;;;;5091628;28;20028;-78
2022/11/30 11:58:11;;;;;;;8.88;5.63;;;;;;;;;;5107451;28;20114;-74
2022/11/30 12:00:37;;;;;;;8.13;5.45;;;;;;;;;;5091647;28;20136;-76
2022/11/30 12:03:02;;;;;;;9.07;5.47;;;;;;;;;;5107649;28;20460;-77
2022/11/30 12:05:41;;;;;;;9.57;5.70;;;;;;;;;;5091810;28;20016;-77
2022/11/30 12:08:10;;;;;;;8.52;5.97;;;;;;;;;;5106816;28;20533;-78
2022/11/30 12:10:41;;;;;;;8.40;5.45;;;;;;;;;;5107291;28;20078;-79
2022/11/30 12:13:15;;;;;;;13.63;6.53;;;;;;;;;;5091387;28;20016;-79
2022/11/30 12:16:00;;;;;;;9.75;4.88;;;;;;;;;;5092158;28;20020;-77
2022/11/30 12:18:31;;;;;;;9.20;5.10;;;;;;;;;;5107319;28;20047;-79
2022/11/30 12:20:56;;;;;;;8.45;4.95;;;;;;;;;;5107116;28;20476;-75
2022/11/30 12:23:41;;;;;;;9.05;4.80;;;;;;;;;;5092252;28;20031;-80
2022/11/30 12:26:25;;;;;;;8.77;5.23;;;;;;;;;;5092190;28;20024;-78
2022/11/30 12:28:58;;;;;;;7.13;4.28;;;;;;;;;;5091765;28;20024;-79
2022/11/30 12:31:31;;;;;;;6.97;4.78;;;;;;;;;;5092028;28;20048;-78
2022/11/30 12:33:57;;;;;;;7.78;5.13;;;;;;;;;;5092186;28;20012;-79
2022/11/30 12:36:37;;;;;;;6.80;4.60;;;;;;;;;;5107516;28;20027;-79
2022/11/30 12:39:03;;;;;;;7.00;4.25;;;;;;;;;;5107459;28;20119;-78
2022/11/30 12:41:41;;;;;;;6.97;4.45;;;;;;;;;;5091708;28;20019;-78
2022/11/30 12:44:27;;;;;;;5.00;3.80;;;;;;;;;;5091539;28;20027;-78
2022/11/30 12:47:07;;;;;;;5.72;3.95;;;;;;;;;;5107350;28;20050;-79
2022/11/30 12:49:47;;;;;;;5.82;3.70;;;;;;;;;;5091609;28;20083;-78
2022/11/30 12:52:32;;;;;;;6.95;4.28;;;;;;;;;;5107418;28;20024;-78
2022/11/30 12:55:01;;;;;;;10.80;5.65;;;;;;;;;;5091305;28;20469;-78
2022/11/30 12:57:27;;;;;;;10.88;5.35;;;;;;;;;;5091751;28;20027;-77
2022/11/30 13:00:18;;;;;;;7.93;4.93;;;;;;;;;;5107181;28;20052;-80
2022/11/30 13:02:56;;;;;;;7.57;5.18;;;;;;;;;;5092814;28;20043;-80
2022/11/30 13:05:26;;;;;;;8.13;4.55;;;;;;;;;;5091867;28;20452;-79
2022/11/30 13:07:51;;;;;;;8.88;4.68;;;;;;;;;;5093118;28;20036;-78
2022/11/30 13:10:33;;;;;;;7.47;4.65;;;;;;;;;;5091409;28;20035;-74
2022/11/30 13:12:59;;;;;;;8.68;4.20;;;;;;;;;;5091402;28;20547;-80
2022/11/30 13:15:26;;;;;;;8.30;5.18;;;;;;;;;;5107263;28;20048;-81
2022/11/30 13:17:52;;;;;;;6.15;4.18;;;;;;;;;;5107586;28;20473;-79
2022/11/30 13:20:27;;;;;;;7.82;4.53;;;;;;;;;;5109545;28;20030;-79
2022/11/30 13:22:52;;;;;;;8.60;5.32;;;;;;;;;;5094226;28;20027;-80
2022/11/30 13:25:23;;;;;;;7.30;4.75;;;;;;;;;;5094733;28;20384;-78
2022/11/30 13:27:53;;;;;;;13.38;5.05;;;;;;;;;;5094880;28;20035;-79
2022/11/30 13:30:21;;;;;;;10.32;5.93;;;;;;;;;;5095668;28;20020;-79
2022/11/30 13:32:47;;;;;;;12.73;6.40;;;;;;;;;;5094768;28;20073;-79
2022/11/30 13:35:27;;;;;;;11.23;6.10;;;;;;;;;;5094930;28;20019;-79
2022/11/30 13:38:22;;;;;;;12.95;5.90;;;;;;;;;;5110016;28;20130;-80
2022/11/30 13:40:58;;;;;;;11.40;7.47;;;;;;;;;;5089766;28;20075;-77
2022/11/30 13:43:25;;;;;;;12.07;6.47;;;;;;;;;;5110083;28;20020;-76
2022/11/30 13:46:01;;;;;;;12.13;6.70;;;;;;;;;;5094688;28;20020;-78
2022/11/30 13:48:37;;;;;;;14.32;7.00;;;;;;;;;;5109581;28;20459;-78
2022/11/30 13:51:02;;;;;;;11.65;6.28;;;;;;;;;;5094231;28;20020;-77
2022/11/30 13:53:32;;;;;;;13.55;6.30;;;;;;;;;;5094164;28;20032;-77
2022/11/30 13:56:06;;;;;;;9.63;5.75;;;;;;;;;;5094914;28;20068;-78
2022/11/30 13:58:32;;;;;;;11.70;7.05;;;;;;;;;;5110559;28;20449;-77
2022/11/30 14:01:20;;;;;;;9.23;5.60;;;;;;;;;;5109073;28;20062;-78
2022/11/30 14:04:04;;;;;;;10.45;6.22;;;;;;;;;;5115085;28;20056;-75
2022/11/30 14:06:42;;;;;;;10.52;5.93;;;;;;;;;;5116023;28;20031;-75
2022/11/30 14:09:14;;;;;;;10.25;6.95;;;;;;;;;;5100203;28;20150;-79
2022/11/30 14:11:43;;;;;;;11.57;7.05;;;;;;;;;;5094762;28;20028;-77
2022/11/30 14:14:27;;;;;;;12.15;7.65;;;;;;;;;;5094828;28;20035;-78
2022/11/30 14:16:53;;;;;;;10.63;7.00;;;;;;;;;;5094012;28;20020;-80
2022/11/30 14:19:18;;;;;;;11.88;7.10;;;;;;;;;;5109741;28;20020;-79
2022/11/30 14:21:44;;;;;;;11.60;6.82;;;;;;;;;;5109160;28;20468;-80
2022/11/30 14:24:20;;;;;;;8.95;6.18;;;;;;;;;;5093824;28;20461;-79
2022/11/30 14:26:47;;;;;;;12.82;6.30;;;;;;;;;;5094280;28;20031;-78
2022/11/30 14:29:18;;;;;;;9.63;6.75;;;;;;;;;;5093589;28;20032;-79
2022/11/30 14:31:46;;;;;;;10.25;6.78;;;;;;;;;;5093325;28;20081;-78
2022/11/30 14:34:16;;;;;;;9.15;6.75;;;;;;;;;;5093117;28;20028;-78
2022/11/30 14:36:47;;;;;;;8.77;5.97;;;;;;;;;;5109355;28;20407;-81
2022/11/30 14:39:33;;;;;;;9.52;5.68;;;;;;;;;;5093148;28;20059;-79
2022/11/30 14:41:59;;;;;;;9.48;6.18;;;;;;;;;;5109128;28;20388;-79
2022/11/30 14:44:24;;;;;;;11.63;5.88;;;;;;;;;;5109458;28;20039;-77
2022/11/30 14:46:50;;;;;;;9.05;6.15;;;;;;;;;;5093262;28;20106;-80
2022/11/30 14:49:16;;;;;;;9.45;6.70;;;;;;;;;;5109003;28;20082;-78